Terminal Aerodrome Forecast
Issued by NWS Upton, NY

Home | Current Version | Previous Version | Text Only | Print | Product List | Glossary On
Versions: 1 2 3 4 5 6 7 8 9 10 11 12 13 14 15 16 17 18 19 20 21 22 23 24 25 26
000
FTUS41 KOKX 110800 AAA
TAFISP
TAF AMD
KISP 110832Z 1109/1206 VRB02KT P6SM SCT150 BKN250
     FM111100 03008KT P6SM FEW050
     FM111900 VRB05KT P6SM FEW050
     FM112100 15009KT P6SM FEW050
     FM120100 VRB03KT P6SM SKC=

USA.gov is the U.S. government's official web portal to all federal, state and local government web resources and services.